sensor_id;sensor_type;location;lat;lon;timestamp;pressure;altitude;pressure_sealevel;temperature;humidity
46682;BME280;34101;53.430;-2.224;2023-08-08T00:01:54;101185.08;;;16.19;62.56
46682;BME280;34101;53.430;-2.224;2023-08-08T00:04:22;101185.06;;;16.31;62.17
46682;BME280;34101;53.430;-2.224;2023-08-08T00:06:49;101187.96;;;16.32;62.20
46682;BME280;34101;53.430;-2.224;2023-08-08T00:09:17;101188.53;;;16.25;62.73
46682;BME280;34101;53.430;-2.224;2023-08-08T00:11:44;101186.98;;;16.19;63.03
46682;BME280;34101;53.430;-2.224;2023-08-08T00:14:11;101187.13;;;16.12;63.30
46682;BME280;34101;53.430;-2.224;2023-08-08T00:16:39;101182.89;;;16.02;63.39
46682;BME280;34101;53.430;-2.224;2023-08-08T00:19:06;101173.77;;;16.04;63.48
46682;BME280;34101;53.430;-2.224;2023-08-08T00:21:34;101168.46;;;16.07;63.46
46682;BME280;34101;53.430;-2.224;2023-08-08T00:24:01;101161.23;;;15.94;64.15
46682;BME280;34101;53.430;-2.224;2023-08-08T00:26:28;101164.80;;;16.05;63.73
46682;BME280;34101;53.430;-2.224;2023-08-08T00:28:56;101169.67;;;15.97;64.47
46682;BME280;34101;53.430;-2.224;2023-08-08T00:31:23;101164.70;;;15.91;65.21
46682;BME280;34101;53.430;-2.224;2023-08-08T00:33:51;101164.20;;;15.93;65.20
46682;BME280;34101;53.430;-2.224;2023-08-08T00:36:18;101154.35;;;15.98;65.30
46682;BME280;34101;53.430;-2.224;2023-08-08T00:38:46;101155.26;;;15.96;65.19
46682;BME280;34101;53.430;-2.224;2023-08-08T00:41:13;101158.57;;;15.82;65.81
46682;BME280;34101;53.430;-2.224;2023-08-08T00:43:41;101156.57;;;15.80;65.98
46682;BME280;34101;53.430;-2.224;2023-08-08T00:46:08;101155.51;;;15.80;66.33
46682;BME280;34101;53.430;-2.224;2023-08-08T00:48:36;101146.58;;;15.87;66.50
46682;BME280;34101;53.430;-2.224;2023-08-08T00:51:03;101151.41;;;15.93;66.38
46682;BME280;34101;53.430;-2.224;2023-08-08T00:53:31;101151.47;;;15.94;66.21
46682;BME280;34101;53.430;-2.224;2023-08-08T00:55:59;101146.75;;;15.94;66.18
46682;BME280;34101;53.430;-2.224;2023-08-08T00:58:27;101148.07;;;15.92;65.91
46682;BME280;34101;53.430;-2.224;2023-08-08T01:00:55;101146.82;;;15.90;66.31
46682;BME280;34101;53.430;-2.224;2023-08-08T01:03:23;101141.72;;;15.82;66.49
46682;BME280;34101;53.430;-2.224;2023-08-08T01:05:55;101137.99;;;15.75;66.88
46682;BME280;34101;53.430;-2.224;2023-08-08T01:08:30;101131.75;;;15.82;66.22
46682;BME280;34101;53.430;-2.224;2023-08-08T01:11:00;101128.29;;;15.84;66.29
46682;BME280;34101;53.430;-2.224;2023-08-08T01:13:31;101121.94;;;15.87;65.70
46682;BME280;34101;53.430;-2.224;2023-08-08T01:16:00;101121.05;;;15.88;65.79
46682;BME280;34101;53.430;-2.224;2023-08-08T01:18:28;101119.51;;;15.89;65.55
46682;BME280;34101;53.430;-2.224;2023-08-08T01:20:57;101117.56;;;15.91;66.02
46682;BME280;34101;53.430;-2.224;2023-08-08T01:23:28;101113.45;;;15.85;65.72
46682;BME280;34101;53.430;-2.224;2023-08-08T01:25:57;101109.63;;;15.85;65.69
46682;BME280;34101;53.430;-2.224;2023-08-08T01:28:25;101107.38;;;15.86;65.52
46682;BME280;34101;53.430;-2.224;2023-08-08T01:30:53;101102.68;;;15.84;65.28
46682;BME280;34101;53.430;-2.224;2023-08-08T01:33:20;101102.76;;;15.86;65.18
46682;BME280;34101;53.430;-2.224;2023-08-08T01:35:53;101100.37;;;15.84;65.16
46682;BME280;34101;53.430;-2.224;2023-08-08T01:38:25;101104.98;;;15.82;64.97
46682;BME280;34101;53.430;-2.224;2023-08-08T01:40:55;101105.08;;;15.79;64.89
46682;BME280;34101;53.430;-2.224;2023-08-08T01:43:24;101100.38;;;15.74;64.86
46682;BME280;34101;53.430;-2.224;2023-08-08T01:45:51;101098.58;;;15.73;64.84
46682;BME280;34101;53.430;-2.224;2023-08-08T01:48:20;101097.48;;;15.70;64.77
46682;BME280;34101;53.430;-2.224;2023-08-08T01:50:47;101096.42;;;15.69;64.79
46682;BME280;34101;53.430;-2.224;2023-08-08T01:53:14;101093.25;;;15.70;64.84
46682;BME280;34101;53.430;-2.224;2023-08-08T01:55:42;101092.01;;;15.68;64.72
46682;BME280;34101;53.430;-2.224;2023-08-08T01:58:09;101085.80;;;15.70;64.72
46682;BME280;34101;53.430;-2.224;2023-08-08T02:00:37;101079.79;;;15.68;64.64
46682;BME280;34101;53.430;-2.224;2023-08-08T02:03:04;101075.73;;;15.67;64.58
46682;BME280;34101;53.430;-2.224;2023-08-08T02:05:32;101080.07;;;15.69;64.63
46682;BME280;34101;53.430;-2.224;2023-08-08T02:08:00;101083.90;;;15.71;64.61
46682;BME280;34101;53.430;-2.224;2023-08-08T02:10:27;101086.65;;;15.76;64.68
46682;BME280;34101;53.430;-2.224;2023-08-08T02:12:54;101086.80;;;15.80;64.53
46682;BME280;34101;53.430;-2.224;2023-08-08T02:15:22;101086.82;;;15.77;64.48
46682;BME280;34101;53.430;-2.224;2023-08-08T02:17:50;101081.72;;;15.74;64.43
46682;BME280;34101;53.430;-2.224;2023-08-08T02:20:17;101078.18;;;15.71;64.61
46682;BME280;34101;53.430;-2.224;2023-08-08T02:22:44;101078.16;;;15.64;64.44
46682;BME280;34101;53.430;-2.224;2023-08-08T02:25:12;101073.27;;;15.51;64.86
46682;BME280;34101;53.430;-2.224;2023-08-08T02:27:39;101073.24;;;15.22;65.85
46682;BME280;34101;53.430;-2.224;2023-08-08T02:30:07;101070.92;;;15.07;66.27
46682;BME280;34101;53.430;-2.224;2023-08-08T02:32:35;101071.45;;;15.01;66.42
46682;BME280;34101;53.430;-2.224;2023-08-08T02:35:02;101066.33;;;14.99;66.67
46682;BME280;34101;53.430;-2.224;2023-08-08T02:37:30;101064.13;;;14.87;66.70
46682;BME280;34101;53.430;-2.224;2023-08-08T02:39:57;101071.77;;;14.88;66.69
46682;BME280;34101;53.430;-2.224;2023-08-08T02:42:25;101077.23;;;14.87;66.75
46682;BME280;34101;53.430;-2.224;2023-08-08T02:44:52;101067.45;;;14.84;66.88
46682;BME280;34101;53.430;-2.224;2023-08-08T02:47:19;101066.32;;;14.78;66.80
46682;BME280;34101;53.430;-2.224;2023-08-08T02:49:47;101065.86;;;14.66;67.52
46682;BME280;34101;53.430;-2.224;2023-08-08T02:52:14;101062.01;;;14.63;67.63
46682;BME280;34101;53.430;-2.224;2023-08-08T02:54:42;101057.39;;;14.57;67.64
46682;BME280;34101;53.430;-2.224;2023-08-08T02:57:09;101054.83;;;14.52;68.10
46682;BME280;34101;53.430;-2.224;2023-08-08T02:59:37;101052.35;;;14.55;67.65
46682;BME280;34101;53.430;-2.224;2023-08-08T03:02:05;101052.49;;;14.39;68.25
46682;BME280;34101;53.430;-2.224;2023-08-08T03:04:33;101054.33;;;14.50;68.09
46682;BME280;34101;53.430;-2.224;2023-08-08T03:07:00;101058.84;;;14.51;68.28
46682;BME280;34101;53.430;-2.224;2023-08-08T03:09:27;101060.08;;;14.54;68.24
46682;BME280;34101;53.430;-2.224;2023-08-08T03:11:55;101063.20;;;14.59;67.88
46682;BME280;34101;53.430;-2.224;2023-08-08T03:14:22;101064.16;;;14.66;67.87
46682;BME280;34101;53.430;-2.224;2023-08-08T03:16:49;101064.15;;;14.64;67.91
46682;BME280;34101;53.430;-2.224;2023-08-08T03:19:17;101068.12;;;14.61;68.27
46682;BME280;34101;53.430;-2.224;2023-08-08T03:21:44;101064.46;;;14.62;68.43
46682;BME280;34101;53.430;-2.224;2023-08-08T03:24:12;101065.70;;;14.52;69.14
46682;BME280;34101;53.430;-2.224;2023-08-08T03:26:39;101059.63;;;14.50;69.99
46682;BME280;34101;53.430;-2.224;2023-08-08T03:29:07;101060.85;;;14.27;70.68
46682;BME280;34101;53.430;-2.224;2023-08-08T03:31:34;101059.30;;;14.38;70.58
46682;BME280;34101;53.430;-2.224;2023-08-08T03:34:02;101058.25;;;14.41;70.46
46682;BME280;34101;53.430;-2.224;2023-08-08T03:36:29;101056.62;;;14.47;70.09
46682;BME280;34101;53.430;-2.224;2023-08-08T03:38:56;101055.41;;;14.45;70.28
46682;BME280;34101;53.430;-2.224;2023-08-08T03:41:24;101053.93;;;14.37;70.38
46682;BME280;34101;53.430;-2.224;2023-08-08T03:43:51;101053.27;;;14.50;70.05
46682;BME280;34101;53.430;-2.224;2023-08-08T03:46:19;101055.92;;;14.47;70.26
46682;BME280;34101;53.430;-2.224;2023-08-08T03:48:46;101060.24;;;14.61;69.66
46682;BME280;34101;53.430;-2.224;2023-08-08T03:51:14;101054.05;;;14.51;69.18
46682;BME280;34101;53.430;-2.224;2023-08-08T03:53:41;101048.37;;;14.30;69.70
46682;BME280;34101;53.430;-2.224;2023-08-08T03:56:08;101050.86;;;14.57;69.27
46682;BME280;34101;53.430;-2.224;2023-08-08T03:58:37;101053.08;;;14.65;69.23
46682;BME280;34101;53.430;-2.224;2023-08-08T04:01:03;101041.75;;;14.69;68.52
46682;BME280;34101;53.430;-2.224;2023-08-08T04:03:31;101040.61;;;14.71;68.75
46682;BME280;34101;53.430;-2.224;2023-08-08T04:05:58;101044.97;;;14.72;68.75
46682;BME280;34101;53.430;-2.224;2023-08-08T04:08:26;101036.11;;;14.63;69.02
46682;BME280;34101;53.430;-2.224;2023-08-08T04:10:53;101032.91;;;14.62;68.58
46682;BME280;34101;53.430;-2.224;2023-08-08T04:13:21;101027.91;;;14.54;69.20
46682;BME280;34101;53.430;-2.224;2023-08-08T04:15:48;101031.05;;;14.55;69.18
46682;BME280;34101;53.430;-2.224;2023-08-08T04:18:15;101033.39;;;14.52;69.31
46682;BME280;34101;53.430;-2.224;2023-08-08T04:20:44;101029.48;;;14.48;69.42
46682;BME280;34101;53.430;-2.224;2023-08-08T04:23:12;101030.16;;;14.52;69.27
46682;BME280;34101;53.430;-2.224;2023-08-08T04:25:40;101036.76;;;14.54;69.52
46682;BME280;34101;53.430;-2.224;2023-08-08T04:28:07;101034.64;;;14.67;69.54
46682;BME280;34101;53.430;-2.224;2023-08-08T04:30:34;101036.78;;;14.75;68.92
46682;BME280;34101;53.430;-2.224;2023-08-08T04:33:02;101034.84;;;14.80;68.85
46682;BME280;34101;53.430;-2.224;2023-08-08T04:35:29;101038.15;;;14.88;68.87
46682;BME280;34101;53.430;-2.224;2023-08-08T04:37:57;101035.05;;;14.93;68.44
46682;BME280;34101;53.430;-2.224;2023-08-08T04:40:24;101032.28;;;14.97;68.26
46682;BME280;34101;53.430;-2.224;2023-08-08T04:42:52;101026.69;;;15.01;68.55
46682;BME280;34101;53.430;-2.224;2023-08-08T04:45:19;101021.13;;;15.09;68.38
46682;BME280;34101;53.430;-2.224;2023-08-08T04:47:47;101019.13;;;15.16;68.05
46682;BME280;34101;53.430;-2.224;2023-08-08T04:50:14;101022.20;;;15.17;67.90
46682;BME280;34101;53.430;-2.224;2023-08-08T04:52:42;101020.57;;;15.06;68.17
46682;BME280;34101;53.430;-2.224;2023-08-08T04:55:09;101018.35;;;15.09;68.09
46682;BME280;34101;53.430;-2.224;2023-08-08T04:57:36;101018.48;;;15.10;67.84
46682;BME280;34101;53.430;-2.224;2023-08-08T05:00:05;101021.12;;;15.10;68.10
46682;BME280;34101;53.430;-2.224;2023-08-08T05:02:33;101020.32;;;15.11;68.12
46682;BME280;34101;53.430;-2.224;2023-08-08T05:05:00;101017.20;;;15.06;67.85
46682;BME280;34101;53.430;-2.224;2023-08-08T05:07:28;101021.51;;;15.00;68.34
46682;BME280;34101;53.430;-2.224;2023-08-08T05:09:55;101025.31;;;15.00;68.53
46682;BME280;34101;53.430;-2.224;2023-08-08T05:12:23;101028.42;;;14.97;68.47
46682;BME280;34101;53.430;-2.224;2023-08-08T05:14:50;101020.25;;;14.96;68.75
46682;BME280;34101;53.430;-2.224;2023-08-08T05:17:18;101019.17;;;14.90;69.05
46682;BME280;34101;53.430;-2.224;2023-08-08T05:19:45;101016.75;;;15.01;68.76
46682;BME280;34101;53.430;-2.224;2023-08-08T05:22:12;101018.99;;;15.06;68.91
46682;BME280;34101;53.430;-2.224;2023-08-08T05:24:40;101018.67;;;15.14;68.53
46682;BME280;34101;53.430;-2.224;2023-08-08T05:27:07;101017.51;;;14.96;69.01
46682;BME280;34101;53.430;-2.224;2023-08-08T05:29:34;101015.91;;;15.03;68.68
46682;BME280;34101;53.430;-2.224;2023-08-08T05:32:02;101013.15;;;15.07;68.75
46682;BME280;34101;53.430;-2.224;2023-08-08T05:34:29;101012.71;;;15.13;68.49
46682;BME280;34101;53.430;-2.224;2023-08-08T05:36:57;101012.43;;;15.26;67.89
46682;BME280;34101;53.430;-2.224;2023-08-08T05:39:24;101004.23;;;15.22;68.43
46682;BME280;34101;53.430;-2.224;2023-08-08T05:41:52;101006.89;;;15.30;68.01
46682;BME280;34101;53.430;-2.224;2023-08-08T05:44:19;101001.95;;;15.26;68.28
46682;BME280;34101;53.430;-2.224;2023-08-08T05:46:46;100996.40;;;15.23;68.44
46682;BME280;34101;53.430;-2.224;2023-08-08T05:49:14;101000.41;;;15.22;68.67
46682;BME280;34101;53.430;-2.224;2023-08-08T05:51:41;100996.06;;;15.17;68.98
46682;BME280;34101;53.430;-2.224;2023-08-08T05:54:09;100998.36;;;15.34;68.28
46682;BME280;34101;53.430;-2.224;2023-08-08T05:56:37;100995.01;;;15.45;68.09
46682;BME280;34101;53.430;-2.224;2023-08-08T05:59:05;100994.57;;;15.47;68.19
46682;BME280;34101;53.430;-2.224;2023-08-08T06:01:32;100996.28;;;15.14;68.84
46682;BME280;34101;53.430;-2.224;2023-08-08T06:03:59;100993.54;;;15.21;69.07
46682;BME280;34101;53.430;-2.224;2023-08-08T06:06:27;100991.21;;;15.22;69.20
46682;BME280;34101;53.430;-2.224;2023-08-08T06:08:54;100993.33;;;15.18;69.01
46682;BME280;34101;53.430;-2.224;2023-08-08T06:11:22;100992.08;;;15.12;69.20
46682;BME280;34101;53.430;-2.224;2023-08-08T06:13:49;100992.93;;;15.28;69.15
46682;BME280;34101;53.430;-2.224;2023-08-08T06:16:16;100994.64;;;15.45;68.70
46682;BME280;34101;53.430;-2.224;2023-08-08T06:18:44;100992.71;;;15.47;68.35
46682;BME280;34101;53.430;-2.224;2023-08-08T06:21:11;100989.57;;;15.51;68.30
46682;BME280;34101;53.430;-2.224;2023-08-08T06:23:39;100988.58;;;15.48;68.21
46682;BME280;34101;53.430;-2.224;2023-08-08T06:26:06;100986.59;;;15.42;68.56
46682;BME280;34101;53.430;-2.224;2023-08-08T06:28:34;100986.44;;;15.55;68.45
46682;BME280;34101;53.430;-2.224;2023-08-08T06:31:01;100981.18;;;15.51;68.13
46682;BME280;34101;53.430;-2.224;2023-08-08T06:33:28;100981.78;;;15.34;68.50
46682;BME280;34101;53.430;-2.224;2023-08-08T06:35:56;100981.07;;;15.52;68.88
46682;BME280;34101;53.430;-2.224;2023-08-08T06:38:23;100979.75;;;15.28;68.76
46682;BME280;34101;53.430;-2.224;2023-08-08T06:40:50;100985.72;;;15.46;68.26
46682;BME280;34101;53.430;-2.224;2023-08-08T06:43:19;100985.62;;;15.58;68.59
46682;BME280;34101;53.430;-2.224;2023-08-08T06:45:45;100981.92;;;15.76;67.76
46682;BME280;34101;53.430;-2.224;2023-08-08T06:48:13;100980.10;;;15.97;67.40
46682;BME280;34101;53.430;-2.224;2023-08-08T06:50:40;100985.92;;;16.01;66.82
46682;BME280;34101;53.430;-2.224;2023-08-08T06:53:08;100985.16;;;16.15;66.72
46682;BME280;34101;53.430;-2.224;2023-08-08T06:55:35;100987.59;;;16.44;66.46
46682;BME280;34101;53.430;-2.224;2023-08-08T06:58:03;100992.15;;;16.45;65.97
46682;BME280;34101;53.430;-2.224;2023-08-08T07:00:31;100996.85;;;16.42;65.59
46682;BME280;34101;53.430;-2.224;2023-08-08T07:02:58;101000.59;;;16.23;66.00
46682;BME280;34101;53.430;-2.224;2023-08-08T07:05:26;101005.95;;;16.05;66.70
46682;BME280;34101;53.430;-2.224;2023-08-08T07:07:53;101001.84;;;16.09;66.63
46682;BME280;34101;53.430;-2.224;2023-08-08T07:10:20;101002.96;;;16.32;66.12
46682;BME280;34101;53.430;-2.224;2023-08-08T07:12:48;101004.85;;;16.33;65.90
46682;BME280;34101;53.430;-2.224;2023-08-08T07:15:15;101001.93;;;16.35;65.66
46682;BME280;34101;53.430;-2.224;2023-08-08T07:17:42;101008.29;;;16.48;65.81
46682;BME280;34101;53.430;-2.224;2023-08-08T07:20:10;101007.14;;;16.68;65.68
46682;BME280;34101;53.430;-2.224;2023-08-08T07:22:37;101008.21;;;16.55;65.55
46682;BME280;34101;53.430;-2.224;2023-08-08T07:25:06;101010.00;;;16.71;64.57
46682;BME280;34101;53.430;-2.224;2023-08-08T07:27:33;101013.55;;;16.51;65.92
46682;BME280;34101;53.430;-2.224;2023-08-08T07:30:00;101014.64;;;16.57;65.92
46682;BME280;34101;53.430;-2.224;2023-08-08T07:32:28;101011.44;;;16.74;65.68
46682;BME280;34101;53.430;-2.224;2023-08-08T07:34:55;101005.20;;;16.71;65.28
46682;BME280;34101;53.430;-2.224;2023-08-08T07:37:23;101006.58;;;16.90;65.21
46682;BME280;34101;53.430;-2.224;2023-08-08T07:39:51;101005.12;;;17.03;64.86
46682;BME280;34101;53.430;-2.224;2023-08-08T07:42:18;101000.10;;;17.20;63.82
46682;BME280;34101;53.430;-2.224;2023-08-08T07:44:45;100996.84;;;17.18;63.66
46682;BME280;34101;53.430;-2.224;2023-08-08T07:47:12;100997.24;;;17.10;63.99
46682;BME280;34101;53.430;-2.224;2023-08-08T07:49:40;100995.52;;;17.19;63.62
46682;BME280;34101;53.430;-2.224;2023-08-08T07:52:07;101000.48;;;17.37;63.07
46682;BME280;34101;53.430;-2.224;2023-08-08T07:54:35;100996.39;;;17.43;63.43
46682;BME280;34101;53.430;-2.224;2023-08-08T07:57:03;100990.34;;;17.58;63.04
46682;BME280;34101;53.430;-2.224;2023-08-08T07:59:30;100980.21;;;17.85;62.56
46682;BME280;34101;53.430;-2.224;2023-08-08T08:01:58;100980.17;;;17.70;62.66
46682;BME280;34101;53.430;-2.224;2023-08-08T08:04:25;100979.56;;;17.86;62.86
46682;BME280;34101;53.430;-2.224;2023-08-08T08:06:53;100979.77;;;18.44;61.74
46682;BME280;34101;53.430;-2.224;2023-08-08T08:09:20;100981.53;;;18.58;59.92
46682;BME280;34101;53.430;-2.224;2023-08-08T08:11:48;100982.34;;;18.78;60.71
46682;BME280;34101;53.430;-2.224;2023-08-08T08:14:15;100980.96;;;18.97;59.71
46682;BME280;34101;53.430;-2.224;2023-08-08T08:16:42;100989.91;;;18.87;60.02
46682;BME280;34101;53.430;-2.224;2023-08-08T08:19:10;100984.87;;;19.25;59.19
46682;BME280;34101;53.430;-2.224;2023-08-08T08:21:37;100973.67;;;19.71;58.18
46682;BME280;34101;53.430;-2.224;2023-08-08T08:24:05;100968.32;;;19.77;58.22
46682;BME280;34101;53.430;-2.224;2023-08-08T08:26:33;100967.44;;;19.58;59.04
46682;BME280;34101;53.430;-2.224;2023-08-08T08:29:00;100963.75;;;19.70;58.70
46682;BME280;34101;53.430;-2.224;2023-08-08T08:31:28;100961.11;;;19.78;58.64
46682;BME280;34101;53.430;-2.224;2023-08-08T08:33:55;100957.92;;;19.96;57.82
46682;BME280;34101;53.430;-2.224;2023-08-08T08:36:23;100958.14;;;20.10;57.57
46682;BME280;34101;53.430;-2.224;2023-08-08T08:38:50;100955.09;;;20.12;57.71
46682;BME280;34101;53.430;-2.224;2023-08-08T08:41:19;100955.76;;;19.81;58.48
46682;BME280;34101;53.430;-2.224;2023-08-08T08:43:51;100951.57;;;19.75;58.91
46682;BME280;34101;53.430;-2.224;2023-08-08T08:46:20;100945.62;;;20.18;57.88
46682;BME280;34101;53.430;-2.224;2023-08-08T08:48:49;100948.20;;;20.78;56.39
46682;BME280;34101;53.430;-2.224;2023-08-08T08:51:17;100957.00;;;21.29;53.74
46682;BME280;34101;53.430;-2.224;2023-08-08T08:53:45;100956.82;;;21.48;53.50
46682;BME280;34101;53.430;-2.224;2023-08-08T08:56:13;100944.00;;;21.72;52.68
46682;BME280;34101;53.430;-2.224;2023-08-08T08:58:41;100944.74;;;22.73;50.43
46682;BME280;34101;53.430;-2.224;2023-08-08T09:01:09;100935.19;;;23.57;48.18
46682;BME280;34101;53.430;-2.224;2023-08-08T09:03:36;100937.63;;;23.33;48.64
46682;BME280;34101;53.430;-2.224;2023-08-08T09:06:05;100934.74;;;23.91;47.39
46682;BME280;34101;53.430;-2.224;2023-08-08T09:08:32;100935.88;;;23.53;47.06
46682;BME280;34101;53.430;-2.224;2023-08-08T09:10:59;100939.32;;;23.78;47.13
46682;BME280;34101;53.430;-2.224;2023-08-08T09:13:27;100937.92;;;23.62;46.31
46682;BME280;34101;53.430;-2.224;2023-08-08T09:15:59;100935.59;;;23.41;47.57
46682;BME280;34101;53.430;-2.224;2023-08-08T09:18:27;100938.77;;;22.97;48.86
46682;BME280;34101;53.430;-2.224;2023-08-08T09:20:54;100935.94;;;22.91;48.59
46682;BME280;34101;53.430;-2.224;2023-08-08T09:23:22;100935.91;;;22.63;49.29
46682;BME280;34101;53.430;-2.224;2023-08-08T09:25:49;100936.94;;;22.34;49.73
46682;BME280;34101;53.430;-2.224;2023-08-08T09:28:17;100941.06;;;22.00;50.31
46682;BME280;34101;53.430;-2.224;2023-08-08T09:30:44;100941.46;;;21.57;52.15
46682;BME280;34101;53.430;-2.224;2023-08-08T09:33:11;100932.79;;;21.34;52.13
46682;BME280;34101;53.430;-2.224;2023-08-08T09:35:39;100926.72;;;21.37;52.58
46682;BME280;34101;53.430;-2.224;2023-08-08T09:38:06;100924.14;;;21.86;51.94
46682;BME280;34101;53.430;-2.224;2023-08-08T09:40:34;100924.00;;;22.47;50.52
46682;BME280;34101;53.430;-2.224;2023-08-08T09:43:01;100925.79;;;23.14;49.31
46682;BME280;34101;53.430;-2.224;2023-08-08T09:45:36;100920.23;;;23.75;47.20
46682;BME280;34101;53.430;-2.224;2023-08-08T09:48:04;100917.92;;;24.02;46.10
46682;BME280;34101;53.430;-2.224;2023-08-08T09:50:32;100916.73;;;24.80;44.53
46682;BME280;34101;53.430;-2.224;2023-08-08T09:53:00;100913.81;;;25.50;43.44
46682;BME280;34101;53.430;-2.224;2023-08-08T09:55:28;100915.31;;;26.30;41.31
46682;BME280;34101;53.430;-2.224;2023-08-08T09:57:57;100921.02;;;26.32;40.34
46682;BME280;34101;53.430;-2.224;2023-08-08T10:00:26;100924.46;;;25.10;42.78
46682;BME280;34101;53.430;-2.224;2023-08-08T10:02:54;100921.13;;;25.74;41.59
46682;BME280;34101;53.430;-2.224;2023-08-08T10:05:21;100921.86;;;25.84;40.44
46682;BME280;34101;53.430;-2.224;2023-08-08T10:07:49;100928.84;;;25.23;42.73
46682;BME280;34101;53.430;-2.224;2023-08-08T10:10:17;100938.59;;;25.10;42.55
46682;BME280;34101;53.430;-2.224;2023-08-08T10:12:45;100947.48;;;24.61;43.47
46682;BME280;34101;53.430;-2.224;2023-08-08T10:15:13;100951.64;;;23.21;46.78
46682;BME280;34101;53.430;-2.224;2023-08-08T10:17:41;100946.01;;;22.41;48.71
46682;BME280;34101;53.430;-2.224;2023-08-08T10:20:10;100940.56;;;22.55;47.47
46682;BME280;34101;53.430;-2.224;2023-08-08T10:22:41;100944.82;;;22.39;48.87
46682;BME280;34101;53.430;-2.224;2023-08-08T10:25:16;100944.53;;;22.23;50.12
46682;BME280;34101;53.430;-2.224;2023-08-08T10:27:44;100931.94;;;22.15;50.41
46682;BME280;34101;53.430;-2.224;2023-08-08T10:30:12;100922.84;;;22.13;51.26
46682;BME280;34101;53.430;-2.224;2023-08-08T10:32:40;100911.05;;;23.14;49.44
46682;BME280;34101;53.430;-2.224;2023-08-08T10:35:08;100903.28;;;24.31;46.44
46682;BME280;34101;53.430;-2.224;2023-08-08T10:37:36;100902.04;;;25.24;43.80
46682;BME280;34101;53.430;-2.224;2023-08-08T10:40:04;100905.94;;;25.26;41.81
46682;BME280;34101;53.430;-2.224;2023-08-08T10:42:40;100900.27;;;25.47;40.59
46682;BME280;34101;53.430;-2.224;2023-08-08T10:45:11;100899.44;;;25.68;40.67
46682;BME280;34101;53.430;-2.224;2023-08-08T10:47:38;100901.91;;;24.38;42.48
46682;BME280;34101;53.430;-2.224;2023-08-08T10:50:07;100899.24;;;25.76;40.21
46682;BME280;34101;53.430;-2.224;2023-08-08T10:52:39;100890.24;;;25.31;39.56
46682;BME280;34101;53.430;-2.224;2023-08-08T10:55:21;100888.32;;;24.45;41.23
46682;BME280;34101;53.430;-2.224;2023-08-08T10:57:59;100891.04;;;24.65;40.54
46682;BME280;34101;53.430;-2.224;2023-08-08T11:00:29;100896.27;;;23.82;43.10
46682;BME280;34101;53.430;-2.224;2023-08-08T11:02:57;100896.62;;;24.01;44.00
46682;BME280;34101;53.430;-2.224;2023-08-08T11:05:28;100900.62;;;24.49;43.52
46682;BME280;34101;53.430;-2.224;2023-08-08T11:07:56;100903.11;;;24.73;41.67
46682;BME280;34101;53.430;-2.224;2023-08-08T11:10:23;100901.55;;;24.67;41.58
46682;BME280;34101;53.430;-2.224;2023-08-08T11:12:55;100899.58;;;24.43;42.06
46682;BME280;34101;53.430;-2.224;2023-08-08T11:15:23;100895.57;;;24.02;41.59
46682;BME280;34101;53.430;-2.224;2023-08-08T11:17:51;100894.91;;;23.81;42.76
46682;BME280;34101;53.430;-2.224;2023-08-08T11:20:18;100896.38;;;23.60;43.01
46682;BME280;34101;53.430;-2.224;2023-08-08T11:22:50;100894.51;;;23.49;43.26
46682;BME280;34101;53.430;-2.224;2023-08-08T11:25:17;100890.99;;;23.36;43.18
46682;BME280;34101;53.430;-2.224;2023-08-08T11:27:49;100888.84;;;23.33;43.90
46682;BME280;34101;53.430;-2.224;2023-08-08T11:30:16;100884.69;;;23.44;44.00
46682;BME280;34101;53.430;-2.224;2023-08-08T11:32:44;100890.84;;;22.80;44.91
46682;BME280;34101;53.430;-2.224;2023-08-08T11:35:12;100894.70;;;22.62;45.11
46682;BME280;34101;53.430;-2.224;2023-08-08T11:37:39;100893.65;;;22.73;44.57
46682;BME280;34101;53.430;-2.224;2023-08-08T11:40:08;100895.39;;;22.88;45.18
46682;BME280;34101;53.430;-2.224;2023-08-08T11:42:35;100889.38;;;22.64;44.49
46682;BME280;34101;53.430;-2.224;2023-08-08T11:45:03;100886.04;;;22.63;45.07
46682;BME280;34101;53.430;-2.224;2023-08-08T11:47:30;100892.31;;;22.74;45.70
46682;BME280;34101;53.430;-2.224;2023-08-08T11:49:59;100879.71;;;22.94;44.34
46682;BME280;34101;53.430;-2.224;2023-08-08T11:52:28;100876.38;;;23.24;43.55
46682;BME280;34101;53.430;-2.224;2023-08-08T11:54:55;100869.34;;;23.18;43.26
46682;BME280;34101;53.430;-2.224;2023-08-08T11:57:22;100870.54;;;22.62;44.05
46682;BME280;34101;53.430;-2.224;2023-08-08T11:59:50;100863.75;;;23.19;44.46
46682;BME280;34101;53.430;-2.224;2023-08-08T12:02:17;100861.05;;;23.69;43.46
46682;BME280;34101;53.430;-2.224;2023-08-08T12:04:45;100857.49;;;24.66;41.22
46682;BME280;34101;53.430;-2.224;2023-08-08T12:07:12;100859.61;;;24.84;41.06
46682;BME280;34101;53.430;-2.224;2023-08-08T12:09:40;100860.65;;;24.77;39.69
46682;BME280;34101;53.430;-2.224;2023-08-08T12:12:08;100859.78;;;24.28;40.54
46682;BME280;34101;53.430;-2.224;2023-08-08T12:14:37;100867.55;;;24.38;41.00
46682;BME280;34101;53.430;-2.224;2023-08-08T12:17:05;100871.52;;;24.09;41.64
46682;BME280;34101;53.430;-2.224;2023-08-08T12:19:32;100874.11;;;24.52;40.64
46682;BME280;34101;53.430;-2.224;2023-08-08T12:22:00;100873.41;;;24.41;41.39
46682;BME280;34101;53.430;-2.224;2023-08-08T12:24:27;100873.23;;;24.49;41.34
46682;BME280;34101;53.430;-2.224;2023-08-08T12:26:55;100876.26;;;23.95;41.12
46682;BME280;34101;53.430;-2.224;2023-08-08T12:29:22;100880.45;;;23.97;41.72
46682;BME280;34101;53.430;-2.224;2023-08-08T12:31:50;100875.38;;;23.89;42.27
46682;BME280;34101;53.430;-2.224;2023-08-08T12:34:17;100869.37;;;23.60;42.90
46682;BME280;34101;53.430;-2.224;2023-08-08T12:36:44;100872.79;;;23.84;43.48
46682;BME280;34101;53.430;-2.224;2023-08-08T12:39:12;100872.78;;;24.16;43.32
46682;BME280;34101;53.430;-2.224;2023-08-08T12:41:39;100868.61;;;24.65;42.36
46682;BME280;34101;53.430;-2.224;2023-08-08T12:44:07;100867.11;;;24.86;41.14